Time;durP1;ratioP1;P1;durP2;ratioP2;P2;SDS_P1;SDS_P2;PMS_P1;PMS_P2;Temp;Humidity;BMP_temperature;BMP_pressure;BME280_temperature;BME280_humidity;BME280_pressure;Samples;Min_cycle;Max_cycle;Signal;HPM_P1;HPM_P2
2022/08/23 00:01:11;;;;;;;6.55;4.60;;;;;;;15.32;100.00;101533.72;5051705;28;20154;-74
2022/08/23 00:03:37;;;;;;;10.07;5.20;;;;;;;15.32;100.00;101528.34;5051454;28;20078;-74
2022/08/23 00:06:02;;;;;;;5.85;4.55;;;;;;;15.33;100.00;101532.69;5051857;28;20370;-74
2022/08/23 00:08:28;;;;;;;5.22;3.67;;;;;;;15.33;100.00;101530.00;5051724;28;20133;-74
2022/08/23 00:10:54;;;;;;;6.18;4.30;;;;;;;15.32;100.00;101523.81;5051750;28;20427;-74
2022/08/23 00:13:20;;;;;;;6.63;4.13;;;;;;;15.31;100.00;101524.81;5051570;28;20029;-74
2022/08/23 00:15:46;;;;;;;10.45;5.22;;;;;;;15.31;100.00;101526.66;5051513;28;20047;-74
2022/08/23 00:18:13;;;;;;;7.88;5.18;;;;;;;15.30;100.00;101525.81;5051482;28;20032;-74
2022/08/23 00:20:38;;;;;;;11.38;5.13;;;;;;;15.32;100.00;101531.88;5051315;28;20057;-73
2022/08/23 00:23:04;;;;;;;14.27;6.18;;;;;;;15.32;100.00;101531.88;5051666;28;20442;-75
2022/08/23 00:25:29;;;;;;;8.57;4.93;;;;;;;15.33;100.00;101525.53;5050460;28;20073;-74
2022/08/23 00:27:54;;;;;;;9.75;4.93;;;;;;;15.36;100.00;101521.69;5051103;28;20056;-75
2022/08/23 00:30:20;;;;;;;7.70;4.60;;;;;;;15.40;100.00;101523.06;5051382;28;20060;-74
2022/08/23 00:32:45;;;;;;;15.20;6.28;;;;;;;15.44;100.00;101521.75;5051468;28;20033;-74
2022/08/23 00:35:12;;;;;;;9.05;5.65;;;;;;;15.48;100.00;101523.13;5051056;28;20040;-73
2022/08/23 00:37:38;;;;;;;12.07;5.90;;;;;;;15.52;100.00;101524.53;5051174;28;20029;-74
2022/08/23 00:40:07;;;;;;;14.90;5.78;;;;;;;15.54;100.00;101516.31;5051499;28;20055;-75
2022/08/23 00:48:20;;;;;;;10.07;5.57;;;;;;;15.55;100.00;101517.97;5050945;28;20438;-74
2022/08/23 00:51:01;;;;;;;10.77;5.95;;;;;;;15.58;100.00;101520.34;5050756;28;20056;-74
2022/08/23 00:53:31;;;;;;;11.90;5.70;;;;;;;15.61;100.00;101516.53;5049499;28;20075;-74
2022/08/23 00:56:02;;;;;;;7.82;5.30;;;;;;;15.64;100.00;101522.41;5050417;28;20025;-74
2022/08/23 00:58:28;;;;;;;;;;;;;;;15.66;100.00;101522.28;5049786;28;20456;-74
2022/08/23 01:00:57;;;;;;;11.32;5.35;;;;;;;15.70;100.00;101510.22;5052302;28;19963;-71
2022/08/23 01:03:24;;;;;;;7.13;5.40;;;;;;;15.76;100.00;101517.63;5052963;28;20032;-72
2022/08/23 01:06:02;;;;;;;12.07;4.60;;;;;;;15.80;100.00;101515.53;5052759;28;20033;-71
2022/08/23 01:08:30;;;;;;;12.75;5.45;;;;;;;15.85;100.00;101507.84;5053126;28;20107;-71
2022/08/23 01:11:10;;;;;;;9.60;5.22;;;;;;;15.89;100.00;101519.13;5052816;28;20025;-72
2022/08/23 01:13:45;;;;;;;10.90;5.93;;;;;;;15.93;100.00;101517.78;5052880;28;20032;-71
2022/08/23 01:16:54;;;;;;;11.73;6.03;;;;;;;15.96;100.00;101517.47;5052832;28;20090;-71
2022/08/23 01:19:29;;;;;;;10.00;5.10;;;;;;;16.02;100.00;101514.16;5025816;28;20037;-71
2022/08/23 01:22:03;;;;;;;11.45;5.05;;;;;;;16.07;100.00;101519.06;5053451;28;20089;-71
2022/08/23 01:24:28;;;;;;;11.30;5.40;;;;;;;16.09;100.00;101517.03;5052966;28;20021;-71
2022/08/23 01:26:54;;;;;;;9.27;5.32;;;;;;;16.13;100.00;101518.41;5051230;28;20047;-71
2022/08/23 01:29:19;;;;;;;10.52;5.28;;;;;;;16.16;100.00;101516.25;5052683;28;20025;-71
2022/08/23 01:31:45;;;;;;;9.27;5.60;;;;;;;16.20;100.00;101514.94;5051823;28;20112;-74
2022/08/23 01:34:13;;;;;;;9.30;4.97;;;;;;;16.21;100.00;101505.88;5053087;28;20167;-71
2022/08/23 01:36:41;;;;;;;14.90;5.00;;;;;;;16.26;100.00;101504.53;5052651;28;20033;-71
2022/08/23 01:39:07;;;;;;;8.95;5.18;;;;;;;16.26;100.00;101507.22;5052706;28;20029;-72
2022/08/23 01:41:32;;;;;;;9.90;5.38;;;;;;;16.26;100.00;101512.59;5052830;28;20351;-72
2022/08/23 01:43:58;;;;;;;17.00;5.35;;;;;;;16.25;100.00;101514.44;5053051;28;20025;-72
2022/08/23 01:46:25;;;;;;;8.30;4.93;;;;;;;16.25;100.00;101519.00;5052259;28;20501;-72
2022/08/23 01:48:53;;;;;;;8.82;5.30;;;;;;;16.24;100.00;101509.25;5052779;28;20106;-71
2022/08/23 01:51:20;;;;;;;10.75;4.40;;;;;;;16.26;100.00;101507.22;5052470;28;20029;-72
2022/08/23 01:53:45;;;;;;;10.23;5.40;;;;;;;16.28;100.00;101502.56;5052400;28;20059;-71
2022/08/23 01:56:12;;;;;;;17.20;6.22;;;;;;;16.27;100.00;101500.84;5054599;28;20104;-72
2022/08/23 01:58:37;;;;;;;10.40;6.53;;;;;;;16.28;100.00;101502.56;5056973;28;20038;-72
2022/08/23 02:01:03;;;;;;;13.57;6.60;;;;;;;16.29;100.00;101496.19;5056002;28;20021;-72
2022/08/23 02:03:29;;;;;;;9.95;6.28;;;;;;;16.28;100.00;101495.31;5055244;28;20028;-72
2022/08/23 02:05:56;;;;;;;12.35;6.55;;;;;;;16.28;100.00;101497.19;5056155;28;20102;-73
2022/08/23 02:11:08;;;;;;;13.50;6.70;;;;;;;16.31;100.00;101505.75;5056789;28;20121;-72
2022/08/23 02:13:34;;;;;;;10.25;6.60;;;;;;;16.33;100.00;101509.13;5056317;28;20071;-72
2022/08/23 02:15:59;;;;;;;9.90;6.53;;;;;;;16.36;100.00;101505.25;5056250;28;20018;-72
2022/08/23 02:18:25;;;;;;;8.43;6.72;;;;;;;16.38;100.00;101497.91;5056393;28;20029;-71
2022/08/23 02:20:51;;;;;;;11.57;6.90;;;;;;;16.41;100.00;101502.94;5056220;28;20093;-72
2022/08/23 02:23:18;;;;;;;12.18;6.93;;;;;;;16.44;100.00;101497.25;5056279;28;20021;-71
2022/08/23 02:25:43;;;;;;;15.30;6.53;;;;;;;16.46;100.00;101495.25;5056226;28;20378;-71
2022/08/23 02:28:09;;;;;;;9.60;6.97;;;;;;;16.48;100.00;101503.13;5056650;28;20036;-71
2022/08/23 02:30:34;;;;;;;9.93;6.85;;;;;;;16.50;100.00;101503.84;5056123;28;20104;-71
2022/08/23 02:33:00;;;;;;;11.65;6.72;;;;;;;16.50;100.00;101506.50;5056208;28;20124;-72
2022/08/23 02:35:27;;;;;;;10.90;6.88;;;;;;;16.50;100.00;101501.97;5056651;28;20465;-71
2022/08/23 02:37:52;;;;;;;17.63;6.97;;;;;;;16.51;100.00;101490.25;5056268;28;20075;-72
2022/08/23 02:40:18;;;;;;;12.80;7.10;;;;;;;16.50;100.00;101504.66;5054706;28;20029;-72
2022/08/23 02:42:44;;;;;;;11.27;6.53;;;;;;;16.51;100.00;101502.81;5056166;28;20108;-71
2022/08/23 02:45:10;;;;;;;18.65;7.43;;;;;;;16.52;100.00;101510.69;5055723;28;20382;-71
2022/08/23 02:47:36;;;;;;;12.40;6.22;;;;;;;16.51;100.00;101506.34;5055556;28;20041;-71
2022/08/23 02:50:06;;;;;;;8.35;6.28;;;;;;;16.51;100.00;101513.56;5055860;28;20496;-71
2022/08/23 02:52:33;;;;;;;9.90;6.28;;;;;;;16.51;100.00;101509.03;5056154;28;20025;-72
2022/08/23 02:54:58;;;;;;;16.90;6.60;;;;;;;16.50;100.00;101519.94;5055846;28;20040;-71
2022/08/23 02:57:25;;;;;;;12.07;6.72;;;;;;;16.51;100.00;101518.91;5055541;28;20025;-71
2022/08/23 02:59:51;;;;;;;11.07;6.45;;;;;;;16.50;100.00;101511.88;5055414;28;20363;-71
2022/08/23 03:02:16;;;;;;;16.00;6.50;;;;;;;16.52;100.00;101515.25;5055686;28;20112;-71
2022/08/23 03:04:42;;;;;;;16.33;7.20;;;;;;;16.51;100.00;101513.56;5055475;28;20124;-71
2022/08/23 03:07:07;;;;;;;10.77;6.00;;;;;;;16.53;100.00;101523.13;5053958;28;20029;-71
2022/08/23 03:09:32;;;;;;;13.27;6.25;;;;;;;16.53;100.00;101527.69;5055362;28;20087;-71
2022/08/23 03:11:58;;;;;;;12.15;6.35;;;;;;;16.54;100.00;101524.84;5055475;28;20021;-71
2022/08/23 03:14:26;;;;;;;12.77;5.93;;;;;;;16.55;100.00;101520.28;5055245;28;20024;-71
2022/08/23 03:16:52;;;;;;;10.65;6.18;;;;;;;16.54;100.00;101524.84;5055038;28;20028;-71
2022/08/23 03:19:18;;;;;;;10.95;6.00;;;;;;;16.54;100.00;101522.16;5055023;28;20021;-71
2022/08/23 03:21:44;;;;;;;12.52;5.95;;;;;;;16.54;100.00;101522.16;5055128;28;20108;-71
2022/08/23 03:24:10;;;;;;;10.77;5.85;;;;;;;16.55;100.00;101521.13;5055325;28;20123;-71
2022/08/23 03:26:35;;;;;;;10.70;6.10;;;;;;;16.54;100.00;101518.59;5055045;28;20033;-71
2022/08/23 03:29:00;;;;;;;10.70;6.15;;;;;;;16.53;100.00;101516.94;5054590;28;20029;-71
2022/08/23 03:31:26;;;;;;;9.43;5.88;;;;;;;16.51;100.00;101517.09;5055156;28;20045;-72
2022/08/23 03:33:51;;;;;;;11.20;5.82;;;;;;;16.50;100.00;101523.47;5055016;28;20090;-74
2022/08/23 03:36:18;;;;;;;9.43;5.30;;;;;;;16.48;100.00;101513.88;5055083;28;20025;-71
2022/08/23 03:38:44;;;;;;;10.90;5.25;;;;;;;16.44;100.00;101518.75;5054722;28;20091;-71
2022/08/23 03:41:10;;;;;;;10.55;5.53;;;;;;;16.43;100.00;101516.22;5054621;28;20029;-71
2022/08/23 03:43:36;;;;;;;11.82;5.25;;;;;;;16.37;100.00;101521.22;5054426;28;20025;-71
2022/08/23 03:46:02;;;;;;;19.45;6.32;;;;;;;16.35;100.00;101520.53;5054237;28;20024;-72
2022/08/23 03:48:28;;;;;;;8.02;5.25;;;;;;;16.31;100.00;101531.78;5054069;28;20044;-71
2022/08/23 03:50:53;;;;;;;7.18;5.65;;;;;;;16.25;100.00;101532.41;5054797;28;20502;-71
2022/08/23 03:53:18;;;;;;;14.48;5.90;;;;;;;16.19;100.00;101531.19;5054640;28;20398;-71
2022/08/23 03:55:45;;;;;;;11.50;5.60;;;;;;;16.13;100.00;101526.47;5054212;28;20072;-74
2022/08/23 03:58:11;;;;;;;10.68;5.70;;;;;;;16.06;100.00;101536.16;5054011;28;20486;-73
2022/08/23 04:00:36;;;;;;;11.90;5.90;;;;;;;16.00;100.00;101535.78;5054153;28;20028;-71
2022/08/23 04:03:02;;;;;;;8.45;6.07;;;;;;;15.95;100.00;101540.78;5054793;28;20025;-72
2022/08/23 04:05:28;;;;;;;14.50;6.20;;;;;;;15.92;100.00;101540.25;5054056;28;20025;-71
2022/08/23 04:07:53;;;;;;;10.07;5.53;;;;;;;15.87;100.00;101535.38;5054211;28;20451;-71
2022/08/23 04:10:19;;;;;;;12.30;5.65;;;;;;;15.84;100.00;101535.69;5054066;28;20027;-72
2022/08/23 04:12:45;;;;;;;16.73;6.15;;;;;;;15.80;100.00;101537.81;5054229;28;20052;-72
2022/08/23 04:15:11;;;;;;;13.68;6.47;;;;;;;15.74;100.00;101538.41;5053970;28;20029;-72
2022/08/23 04:17:36;;;;;;;11.68;5.43;;;;;;;15.71;100.00;101544.09;5053924;28;20040;-72
2022/08/23 04:20:04;;;;;;;9.77;5.57;;;;;;;15.65;100.00;101539.38;5052348;28;20112;-72
2022/08/23 04:22:29;;;;;;;14.48;5.85;;;;;;;15.61;100.00;101544.19;5053646;28;20083;-72
2022/08/23 04:24:54;;;;;;;9.68;5.70;;;;;;;15.56;100.00;101538.44;5054109;28;20036;-73
2022/08/23 04:27:21;;;;;;;10.15;6.10;;;;;;;15.51;100.00;101541.59;5052376;28;20044;-71
2022/08/23 04:29:46;;;;;;;9.55;5.90;;;;;;;15.48;100.00;101543.72;5053702;28;20039;-72
2022/08/23 04:32:13;;;;;;;10.07;5.90;;;;;;;15.46;100.00;101557.28;5053716;28;20113;-72
2022/08/23 04:34:39;;;;;;;11.63;6.50;;;;;;;15.42;100.00;101542.53;5053581;28;20059;-71
2022/08/23 04:37:05;;;;;;;10.98;5.95;;;;;;;15.38;100.00;101538.47;5053468;28;20455;-72
2022/08/23 04:42:16;;;;;;;11.00;5.80;;;;;;;15.34;100.00;101545.94;5053887;28;20029;-72
2022/08/23 04:42:18;;;;;;;9.77;6.13;;;;;;;15.32;100.00;101547.94;5053398;28;20325;-72
2022/08/23 04:44:43;;;;;;;9.35;5.60;;;;;;;15.28;100.00;101535.00;5053803;28;20469;-72
2022/08/23 04:47:09;;;;;;;10.18;5.40;;;;;;;15.25;100.00;101543.34;5056450;28;20052;-72
2022/08/23 04:49:35;;;;;;;11.05;5.47;;;;;;;15.23;100.00;101540.00;5053957;28;20033;-74
2022/08/23 04:52:01;;;;;;;10.27;6.22;;;;;;;15.22;100.00;101543.66;5052700;28;20075;-74
2022/08/23 04:54:28;;;;;;;12.40;6.80;;;;;;;15.19;100.00;101550.16;5053095;28;20036;-72
2022/08/23 04:56:53;;;;;;;10.77;6.30;;;;;;;15.17;100.00;101549.50;5053004;28;20029;-71
2022/08/23 04:59:19;;;;;;;13.20;6.28;;;;;;;15.16;100.00;101555.84;5053150;28;20347;-71
2022/08/23 05:01:44;;;;;;;14.10;6.32;;;;;;;15.15;100.00;101559.50;5053157;28;20037;-71
2022/08/23 05:04:10;;;;;;;8.60;5.35;;;;;;;15.12;100.00;101559.81;5053231;28;20036;-72
2022/08/23 05:06:36;;;;;;;12.60;6.00;;;;;;;15.13;100.00;101569.53;5053108;28;20115;-71
2022/08/23 05:09:01;;;;;;;13.10;5.55;;;;;;;15.10;100.00;101568.00;5053087;28;20378;-72
2022/08/23 05:11:28;;;;;;;9.50;6.13;;;;;;;15.09;100.00;101566.34;5051721;28;20036;-71
2022/08/23 05:13:53;;;;;;;12.68;5.78;;;;;;;15.07;100.00;101567.47;5052719;28;20424;-72
2022/08/23 05:16:19;;;;;;;11.10;5.50;;;;;;;15.06;100.00;101560.41;5052806;28;20032;-73
2022/08/23 05:18:44;;;;;;;11.65;6.60;;;;;;;15.08;100.00;101566.47;5052922;28;20227;-72
2022/08/23 05:21:18;;;;;;;11.70;7.00;;;;;;;15.10;100.00;101576.03;5052856;28;20474;-73
2022/08/23 05:23:44;;;;;;;14.57;6.50;;;;;;;15.11;100.00;101569.69;5051708;28;20036;-72
2022/08/23 05:26:10;;;;;;;8.65;6.05;;;;;;;15.14;100.00;101571.22;5052877;28;20029;-73
2022/08/23 05:28:38;;;;;;;12.90;6.82;;;;;;;15.18;100.00;101577.13;5052821;28;20033;-72
2022/08/23 05:31:13;;;;;;;10.98;5.85;;;;;;;15.20;100.00;101576.00;5052680;28;20025;-73
2022/08/23 05:33:39;;;;;;;11.68;6.85;;;;;;;15.23;100.00;101572.16;5053116;28;20365;-72
2022/08/23 05:36:05;;;;;;;18.13;7.75;;;;;;;15.26;100.00;101578.06;5052457;28;20032;-72
2022/08/23 05:38:32;;;;;;;11.75;7.05;;;;;;;15.28;100.00;101573.38;5051231;28;20117;-72
2022/08/23 05:40:57;;;;;;;14.38;7.30;;;;;;;15.32;100.00;101576.63;5052456;28;20471;-72
2022/08/23 05:43:24;;;;;;;15.15;7.45;;;;;;;15.34;100.00;101583.50;5052589;28;20035;-72
2022/08/23 05:46:12;;;;;;;11.48;7.22;;;;;;;15.40;100.00;101589.25;5052587;28;20017;-71
2022/08/23 05:48:40;;;;;;;12.43;7.00;;;;;;;15.46;100.00;101594.84;5053225;28;20390;-72
2022/08/23 05:51:08;;;;;;;11.77;6.70;;;;;;;15.52;100.00;101596.94;5052644;28;20094;-71
2022/08/23 05:53:34;;;;;;;10.32;6.78;;;;;;;15.58;100.00;101595.44;5052132;28;20033;-71
2022/08/23 05:56:15;;;;;;;12.27;6.30;;;;;;;15.67;100.00;101596.38;5052630;28;20083;-72
2022/08/23 05:58:41;;;;;;;9.63;6.15;;;;;;;15.73;100.00;101600.28;5053144;28;20029;-72
2022/08/23 06:01:08;;;;;;;10.73;6.38;;;;;;;15.81;100.00;101603.91;5052762;28;20478;-72
2022/08/23 06:03:34;;;;;;;8.55;6.30;;;;;;;15.92;100.00;101597.44;5052711;28;20086;-72
2022/08/23 06:06:00;;;;;;;13.50;6.50;;;;;;;16.04;100.00;101590.81;5052674;28;20328;-72
2022/08/23 06:08:27;;;;;;;9.45;5.82;;;;;;;16.19;100.00;101601.84;5052557;28;20043;-71
2022/08/23 06:11:00;;;;;;;10.35;6.60;;;;;;;16.35;100.00;101592.22;5050988;28;20470;-71
2022/08/23 06:13:25;;;;;;;8.32;6.18;;;;;;;16.56;100.00;101594.50;5051870;28;20033;-72
2022/08/23 06:15:51;;;;;;;12.88;6.05;;;;;;;16.79;100.00;101593.94;5052268;28;20033;-71
2022/08/23 06:18:16;;;;;;;11.85;6.93;;;;;;;17.06;100.00;101592.88;5052111;28;20143;-72
2022/08/23 06:20:41;;;;;;;10.23;6.30;;;;;;;17.36;100.00;101591.47;5051184;28;20467;-72
2022/08/23 06:23:07;;;;;;;11.18;6.28;;;;;;;17.68;100.00;101589.81;5050999;28;20366;-72
2022/08/23 06:25:36;;;;;;;12.02;6.15;;;;;;;18.04;100.00;101591.34;5051888;28;20080;-72
2022/08/23 06:28:02;;;;;;;9.27;6.28;;;;;;;18.42;100.00;101591.59;5052171;28;20068;-71
2022/08/23 06:30:27;;;;;;;9.98;6.13;;;;;;;18.82;100.00;101587.94;5052153;28;20021;-72
2022/08/23 06:32:53;;;;;;;12.27;6.45;;;;;;;19.24;100.00;101595.81;5052102;28;20078;-72
2022/08/23 06:35:18;;;;;;;11.23;6.55;;;;;;;19.62;100.00;101595.91;5052748;28;20055;-72
2022/08/23 06:37:43;;;;;;;16.17;6.60;;;;;;;20.00;100.00;101591.38;5051350;28;20029;-72
2022/08/23 06:40:09;;;;;;;11.77;5.88;;;;;;;20.34;100.00;101592.72;5051815;28;20079;-72
2022/08/23 06:42:35;;;;;;;15.05;6.00;;;;;;;20.65;99.87;101594.41;5054547;28;20375;-72
2022/08/23 06:45:00;;;;;;;15.85;6.22;;;;;;;20.98;96.52;101593.19;5054430;28;20470;-71
2022/08/23 06:47:26;;;;;;;10.20;4.90;;;;;;;21.23;94.70;101593.66;5053893;28;20041;-74
2022/08/23 06:49:51;;;;;;;10.43;5.40;;;;;;;21.45;93.58;101587.25;5055091;28;20425;-71
2022/08/23 06:52:17;;;;;;;12.60;5.03;;;;;;;21.63;91.93;101589.53;5055497;28;20041;-71
2022/08/23 06:54:45;;;;;;;13.32;5.00;;;;;;;21.85;90.22;101589.50;5055335;28;20108;-71
2022/08/23 06:57:11;;;;;;;11.43;5.05;;;;;;;22.02;87.68;101596.31;5055824;28;20103;-71
2022/08/23 06:59:37;;;;;;;10.95;4.35;;;;;;;22.17;86.07;101592.69;5055337;28;20042;-71
2022/08/23 07:02:06;;;;;;;12.85;4.10;;;;;;;22.31;86.24;101599.00;5055899;28;20084;-73
2022/08/23 07:04:34;;;;;;;14.18;4.10;;;;;;;22.48;84.68;101594.13;5055543;28;20104;-72
2022/08/23 07:07:01;;;;;;;8.07;4.10;;;;;;;22.63;84.19;101594.84;5055732;28;20021;-72
2022/08/23 07:09:27;;;;;;;7.32;2.92;;;;;;;22.78;80.88;101608.28;5055270;28;20100;-73
2022/08/23 07:11:53;;;;;;;6.78;2.42;;;;;;;22.91;79.60;101598.53;5055185;28;20036;-72
2022/08/23 07:14:20;;;;;;;5.13;2.63;;;;;;;23.01;77.31;101602.53;5055221;28;20112;-72
2022/08/23 07:16:51;;;;;;;5.07;2.40;;;;;;;23.00;77.04;101605.44;5055359;28;20446;-72
2022/08/23 07:19:19;;;;;;;9.77;2.75;;;;;;;23.03;77.61;101607.75;5055871;28;20347;-71
2022/08/23 07:21:45;;;;;;;5.32;2.35;;;;;;;22.95;80.05;101602.50;5054636;28;20082;-72
2022/08/23 07:24:12;;;;;;;7.10;2.60;;;;;;;23.00;78.68;101602.72;5055125;28;20029;-72
2022/08/23 07:26:38;;;;;;;8.20;2.53;;;;;;;23.07;79.66;101604.41;5054761;28;20095;-71
2022/08/23 07:29:06;;;;;;;8.55;2.97;;;;;;;23.21;78.24;101601.78;5054862;28;20021;-71
2022/08/23 07:31:33;;;;;;;8.95;2.60;;;;;;;23.40;76.43;101600.97;5054343;28;20454;-72
2022/08/23 07:34:00;;;;;;;4.85;2.45;;;;;;;23.63;74.81;101612.50;5055078;28;20458;-72
2022/08/23 07:36:27;;;;;;;7.15;2.88;;;;;;;23.84;74.55;101608.75;5055109;28;20064;-72
2022/08/23 07:38:54;;;;;;;7.25;2.22;;;;;;;24.02;73.20;101611.72;5054554;28;20035;-72
2022/08/23 07:41:22;;;;;;;8.05;2.35;;;;;;;24.10;69.83;101613.38;5054602;28;20059;-71
2022/08/23 07:43:48;;;;;;;10.13;2.50;;;;;;;24.10;72.17;101618.81;5055165;28;20383;-72
2022/08/23 07:46:14;;;;;;;5.15;2.30;;;;;;;23.99;70.80;101619.44;5054605;28;20037;-72
2022/08/23 07:48:40;;;;;;;5.43;2.38;;;;;;;23.88;73.33;101619.03;5054936;28;20045;-71
2022/08/23 07:51:08;;;;;;;10.07;2.63;;;;;;;23.93;71.16;101624.69;5054450;28;20131;-72
2022/08/23 07:53:34;;;;;;;6.70;2.45;;;;;;;23.95;71.84;101627.19;5054028;28;20441;-72
2022/08/23 07:56:03;;;;;;;11.07;2.50;;;;;;;23.99;71.00;101633.03;5054325;28;20033;-71
2022/08/23 07:58:29;;;;;;;7.88;2.40;;;;;;;24.08;70.97;101631.78;5054778;28;20041;-72
2022/08/23 08:00:54;;;;;;;7.88;2.38;;;;;;;24.24;72.55;101635.94;5052667;28;20025;-72
2022/08/23 08:03:20;;;;;;;8.32;2.40;;;;;;;24.37;72.04;101629.66;5054006;28;20116;-72
2022/08/23 08:05:45;;;;;;;4.05;2.15;;;;;;;24.44;71.75;101633.22;5052919;28;20029;-72
2022/08/23 08:08:11;;;;;;;7.75;2.15;;;;;;;24.56;71.90;101630.69;5053991;28;20037;-72
2022/08/23 08:10:39;;;;;;;7.03;2.78;;;;;;;24.60;69.88;101638.22;5053960;28;20028;-71
2022/08/23 08:13:06;;;;;;;8.70;2.40;;;;;;;24.67;70.18;101642.81;5054000;28;20035;-71
2022/08/23 08:15:31;;;;;;;8.15;2.67;;;;;;;24.63;70.51;101650.53;5053539;28;20032;-73
2022/08/23 08:17:57;;;;;;;7.40;2.75;;;;;;;24.54;70.71;101649.06;5054126;28;20071;-71
2022/08/23 08:20:22;;;;;;;7.38;2.20;;;;;;;24.44;68.38;101665.84;5052440;28;20025;-72
2022/08/23 08:22:49;;;;;;;13.40;2.95;;;;;;;24.29;68.95;101658.75;5053721;28;20409;-72
2022/08/23 08:25:15;;;;;;;5.85;2.67;;;;;;;24.37;72.19;101667.75;5053754;28;20037;-71
2022/08/23 08:27:41;;;;;;;9.95;2.55;;;;;;;24.58;69.64;101661.22;5054101;28;20025;-72
2022/08/23 08:30:09;;;;;;;5.75;2.17;;;;;;;24.87;69.89;101659.06;5053625;28;20040;-71
2022/08/23 08:32:35;;;;;;;7.15;2.65;;;;;;;25.17;67.03;101664.81;5053419;28;20078;-72
2022/08/23 08:35:01;;;;;;;6.30;2.50;;;;;;;25.32;65.89;101662.69;5053781;28;20037;-70
2022/08/23 08:37:27;;;;;;;18.25;3.00;;;;;;;25.45;65.77;101655.47;5053185;28;20029;-71
2022/08/23 08:39:53;;;;;;;9.70;2.60;;;;;;;25.57;65.29;101659.16;5053398;28;20031;-72
2022/08/23 08:42:30;;;;;;;12.70;2.60;;;;;;;25.39;64.36;101661.78;5053349;28;20409;-72
2022/08/23 08:44:59;;;;;;;11.02;2.50;;;;;;;25.35;64.42;101661.41;5053542;28;20458;-71
2022/08/23 08:47:24;;;;;;;28.33;3.53;;;;;;;25.26;65.82;101666.25;5053241;28;20479;-71
2022/08/23 08:50:01;;;;;;;19.30;3.15;;;;;;;25.41;63.70;101657.81;5053199;28;20055;-72
2022/08/23 08:52:34;;;;;;;6.80;2.40;;;;;;;25.31;64.94;101665.63;5053230;28;20112;-72
2022/08/23 08:55:05;;;;;;;5.13;2.15;;;;;;;25.36;65.26;101662.25;5053561;28;20032;-72
2022/08/23 08:57:38;;;;;;;6.53;2.45;;;;;;;25.43;65.89;101661.13;5053708;28;20440;-71
2022/08/23 09:00:07;;;;;;;6.65;2.72;;;;;;;25.50;64.94;101664.66;5053572;28;20039;-71
2022/08/23 09:02:33;;;;;;;10.52;3.03;;;;;;;25.66;66.63;101662.47;5053714;28;20028;-71
2022/08/23 09:05:01;;;;;;;6.32;2.30;;;;;;;25.82;63.76;101663.81;5053510;28;20033;-71
2022/08/23 09:07:51;;;;;;;10.07;2.50;;;;;;;25.94;64.13;101664.78;5053038;28;20538;-70
2022/08/23 09:10:29;;;;;;;5.28;2.30;;;;;;;26.10;61.62;101665.34;5053100;28;20025;-71
2022/08/23 09:13:02;;;;;;;7.78;2.47;;;;;;;26.02;62.33;101670.00;5052908;28;20179;-71
2022/08/23 09:15:48;;;;;;;4.38;2.17;;;;;;;25.96;66.35;101664.56;5052960;28;20029;-71
2022/08/23 09:18:15;;;;;;;8.43;2.28;;;;;;;26.08;65.04;101672.88;5052757;28;20112;-71
2022/08/23 09:20:44;;;;;;;6.57;2.47;;;;;;;26.20;62.59;101662.94;5052965;28;20066;-71
2022/08/23 09:23:16;;;;;;;9.70;2.88;;;;;;;26.55;59.82;101674.09;5052601;28;20455;-71
2022/08/23 09:25:53;;;;;;;7.78;2.40;;;;;;;27.23;56.15;101676.91;5053221;28;20028;-71
2022/08/23 09:28:19;;;;;;;4.05;2.08;;;;;;;27.53;57.08;101681.59;5052910;28;20036;-71
2022/08/23 09:30:52;;;;;;;7.25;1.90;;;;;;;27.66;52.95;101673.19;5053142;28;20116;-72
2022/08/23 09:33:25;;;;;;;9.27;2.33;;;;;;;28.34;50.72;101670.25;5052733;28;20035;-71
2022/08/23 09:36:16;;;;;;;5.55;2.10;;;;;;;28.96;48.83;101669.69;5052965;28;20095;-71
2022/08/23 09:39:03;;;;;;;7.93;2.05;;;;;;;29.06;50.08;101672.63;5052331;28;20052;-72
2022/08/23 09:41:37;;;;;;;10.27;2.00;;;;;;;30.65;45.32;101670.97;5052730;28;20029;-71
2022/08/23 09:44:08;;;;;;;7.95;1.92;;;;;;;32.37;42.13;101665.00;5053263;28;20017;-71
2022/08/23 09:46:40;;;;;;;3.67;1.75;;;;;;;33.55;37.78;101660.78;5053319;28;20067;-71
2022/08/23 09:49:23;;;;;;;10.18;2.10;;;;;;;34.42;36.20;101662.66;5053352;28;20037;-72
2022/08/23 09:51:50;;;;;;;5.75;1.60;;;;;;;34.17;35.29;101659.94;5052533;28;20411;-71
2022/08/23 09:54:32;;;;;;;3.67;1.65;;;;;;;34.20;34.22;101656.63;5053021;28;20025;-71
2022/08/23 09:57:04;;;;;;;8.23;1.92;;;;;;;33.85;34.60;101664.69;5052926;28;20033;-71
2022/08/23 09:59:30;;;;;;;4.55;1.80;;;;;;;34.51;33.74;101656.59;5052728;28;20142;-72
2022/08/23 10:01:58;;;;;;;6.00;1.88;;;;;;;34.88;33.85;101655.34;5052874;28;20075;-72
2022/08/23 10:04:36;;;;;;;8.52;1.88;;;;;;;34.99;33.46;101659.72;5052225;28;20033;-72
2022/08/23 10:07:40;;;;;;;3.85;1.60;;;;;;;34.36;34.84;101651.94;5052853;28;20103;-72
2022/08/23 10:10:27;;;;;;;3.53;1.83;;;;;;;33.78;35.64;101653.09;5052485;28;20021;-72
2022/08/23 10:12:55;;;;;;;8.35;1.67;;;;;;;33.81;34.95;101646.19;5052545;28;20112;-72
2022/08/23 10:15:57;;;;;;;8.23;2.10;;;;;;;32.56;36.23;101652.47;5052831;28;20021;-71
2022/08/23 10:19:00;;;;;;;7.45;1.73;;;;;;;32.76;38.44;101654.50;5056347;28;20051;-72
2022/08/23 10:21:56;;;;;;;3.67;1.80;;;;;;;33.21;35.46;101653.00;5056820;28;20029;-71
2022/08/23 10:24:30;;;;;;;6.85;2.10;;;;;;;33.90;35.50;101647.28;5057060;28;20029;-72
2022/08/23 10:30:27;;;;;;;5.85;1.95;;;;;;;34.19;34.69;101643.94;5055884;28;20126;-71
2022/08/23 10:33:22;;;;;;;5.03;1.77;;;;;;;32.32;37.52;101654.78;5056638;28;20025;-72
2022/08/23 10:36:13;;;;;;;5.10;2.08;;;;;;;31.57;38.88;101650.06;5053991;28;20041;-78
2022/08/23 10:38:51;;;;;;;3.80;1.75;;;;;;;32.32;38.37;101643.78;5056307;28;20029;-71
2022/08/23 10:41:49;;;;;;;4.97;1.88;;;;;;;32.25;39.37;101645.97;5056022;28;20025;-71
2022/08/23 10:44:36;;;;;;;6.00;1.80;;;;;;;33.27;35.93;101644.75;5056376;28;20102;-71
2022/08/23 10:47:16;;;;;;;6.85;1.83;;;;;;;34.09;35.27;101642.03;5055372;28;20041;-72
2022/08/23 10:49:45;;;;;;;6.60;1.60;;;;;;;34.41;35.52;101640.84;5055810;28;20032;-72
2022/08/23 10:52:26;;;;;;;8.23;1.65;;;;;;;34.88;32.14;101647.06;5055704;28;20476;-72
2022/08/23 10:55:15;;;;;;;4.85;1.90;;;;;;;33.78;35.08;101652.28;5055903;28;20343;-72
2022/08/23 10:57:42;;;;;;;3.47;1.48;;;;;;;33.65;34.97;101643.41;5055806;28;20025;-71
2022/08/23 11:00:14;;;;;;;3.78;1.73;;;;;;;32.94;35.74;101639.41;5055654;28;20036;-71
2022/08/23 11:03:02;;;;;;;5.82;1.73;;;;;;;32.78;37.32;101645.97;5056071;28;20029;-70
2022/08/23 11:05:37;;;;;;;6.18;1.60;;;;;;;32.66;36.38;101638.75;5055348;28;20021;-71
2022/08/23 11:08:31;;;;;;;6.78;1.60;;;;;;;32.45;37.42;101643.31;5055384;28;20470;-71
2022/08/23 11:10:57;;;;;;;3.45;1.60;;;;;;;31.56;37.59;101645.69;5055250;28;20025;-71
2022/08/23 11:13:30;;;;;;;3.45;1.50;;;;;;;30.89;39.71;101646.84;5055525;28;20104;-72
2022/08/23 11:16:24;;;;;;;4.60;1.60;;;;;;;31.26;38.54;101649.78;5055377;28;20112;-73
2022/08/23 11:18:50;;;;;;;3.80;1.35;;;;;;;32.13;37.58;101651.66;5055386;28;20025;-72
2022/08/23 11:21:24;;;;;;;5.43;1.63;;;;;;;33.38;35.57;101652.78;5053800;28;20431;-72
2022/08/23 11:23:54;;;;;;;3.28;1.65;;;;;;;34.13;35.37;101645.03;5055082;28;20052;-72
2022/08/23 11:26:25;;;;;;;4.90;1.67;;;;;;;33.60;36.06;101648.91;5055078;28;20055;-72
2022/08/23 11:28:53;;;;;;;5.55;1.60;;;;;;;33.73;36.47;101650.34;5053719;28;20020;-72
2022/08/23 11:31:30;;;;;;;7.50;1.73;;;;;;;34.66;36.05;101655.69;5055000;28;20074;-72
2022/08/23 11:34:07;;;;;;;6.05;1.90;;;;;;;35.55;35.00;101654.97;5055160;28;20059;-73
2022/08/23 11:36:34;;;;;;;6.45;2.30;;;;;;;36.19;33.90;101661.31;5054707;28;20033;-71
2022/08/23 11:39:12;;;;;;;8.90;2.30;;;;;;;35.99;34.01;101660.41;5054524;28;20029;-72